createdAt,value
2016-05-18T00:00:27.228Z,991.09
2016-05-18T00:01:27.215Z,991.07
2016-05-18T00:02:27.219Z,991.07
2016-05-18T00:03:27.205Z,991.05
2016-05-18T00:04:27.208Z,991.09
2016-05-18T00:05:27.211Z,991.03
2016-05-18T00:06:39.947Z,990.97
2016-05-18T00:07:27.216Z,990.97
2016-05-18T00:08:27.202Z,990.98
2016-05-18T00:09:27.190Z,990.93
2016-05-18T00:10:27.193Z,990.91
2016-05-18T00:11:27.196Z,990.96
2016-05-18T00:12:27.182Z,990.94
2016-05-18T00:13:27.185Z,991
2016-05-18T00:14:27.204Z,990.99
2016-05-18T00:15:27.190Z,990.98
2016-05-18T00:16:27.193Z,990.97
2016-05-18T00:17:27.180Z,990.93
2016-05-18T00:18:27.183Z,990.92
2016-05-18T00:19:39.920Z,990.93
2016-05-18T00:20:27.173Z,990.92
2016-05-18T00:21:27.175Z,990.92
2016-05-18T00:22:27.178Z,990.9
2016-05-18T00:23:27.181Z,990.93
2016-05-18T00:24:27.183Z,990.91
2016-05-18T00:25:27.171Z,990.95
2016-05-18T00:26:27.173Z,990.93
2016-05-18T00:27:27.160Z,990.96
2016-05-18T00:28:27.163Z,990.88
2016-05-18T00:29:27.150Z,990.89
2016-05-18T00:30:39.887Z,990.86
2016-05-18T00:31:27.217Z,990.88
2016-05-18T00:32:27.159Z,990.88
2016-05-18T00:33:27.145Z,990.85
2016-05-18T00:34:27.163Z,990.85
2016-05-18T00:35:39.885Z,990.82
2016-05-18T00:36:27.153Z,990.85
2016-05-18T00:37:27.155Z,990.83
2016-05-18T00:38:27.144Z,990.81
2016-05-18T00:39:27.146Z,990.84
2016-05-18T00:40:27.148Z,990.83
2016-05-18T00:41:39.870Z,990.78
2016-05-18T00:42:27.138Z,990.78
2016-05-18T00:43:27.124Z,990.79
2016-05-18T00:44:27.128Z,990.78
2016-05-18T00:45:39.865Z,990.76
2016-05-18T00:46:27.118Z,990.78
2016-05-18T00:47:27.120Z,990.71
2016-05-18T00:48:27.138Z,990.71
2016-05-18T00:49:27.125Z,990.67
2016-05-18T00:50:27.113Z,990.67
2016-05-18T00:51:27.115Z,990.66
2016-05-18T00:52:27.134Z,990.65
2016-05-18T00:53:27.184Z,990.63
2016-05-18T00:54:27.123Z,990.61
2016-05-18T00:55:27.111Z,990.6
2016-05-18T00:56:27.113Z,990.58
2016-05-18T00:57:27.100Z,990.58
2016-05-18T00:58:27.119Z,990.58
2016-05-18T00:59:27.106Z,990.58
2016-05-18T01:00:39.842Z,990.57
2016-05-18T01:01:39.845Z,990.52
2016-05-18T01:02:27.098Z,990.5
2016-05-18T01:03:27.100Z,990.49
2016-05-18T01:04:27.088Z,990.52
2016-05-18T01:05:27.091Z,990.52
2016-05-18T01:06:27.109Z,990.47
2016-05-18T01:07:27.127Z,990.48
2016-05-18T01:08:27.083Z,990.49
2016-05-18T01:09:27.086Z,990.47
2016-05-18T01:10:27.088Z,990.46
2016-05-18T01:11:27.075Z,990.47
2016-05-18T01:12:39.812Z,990.41
2016-05-18T01:13:27.081Z,990.41
2016-05-18T01:14:27.068Z,990.41
2016-05-18T01:15:27.070Z,990.38
2016-05-18T01:16:27.073Z,990.43
2016-05-18T01:17:46.279Z,990.44
2016-05-18T01:18:39.813Z,990.4
2016-05-18T01:19:27.065Z,990.44
2016-05-18T01:20:52.741Z,990.38
2016-05-18T01:21:27.056Z,990.38
2016-05-18T01:22:27.074Z,990.41
2016-05-18T01:23:27.061Z,990.38
2016-05-18T01:24:27.047Z,990.4
2016-05-18T01:25:27.051Z,990.41
2016-05-18T01:26:27.053Z,990.39
2016-05-18T01:27:27.056Z,990.4
2016-05-18T01:28:27.043Z,990.39
2016-05-18T01:29:27.045Z,990.39
2016-05-18T01:30:27.048Z,990.38
2016-05-18T01:31:27.050Z,990.36
2016-05-18T01:32:27.054Z,990.39
2016-05-18T01:33:27.041Z,990.41
2016-05-18T01:34:27.044Z,990.43
2016-05-18T01:35:27.030Z,990.42
2016-05-18T01:36:27.033Z,990.39
2016-05-18T01:37:27.036Z,990.39
2016-05-18T01:38:27.022Z,990.38
2016-05-18T01:39:27.025Z,990.36
2016-05-18T01:40:27.028Z,990.37
2016-05-18T01:41:27.016Z,990.38
2016-05-18T01:42:27.018Z,990.41
2016-05-18T01:43:27.021Z,990.35
2016-05-18T01:44:46.227Z,990.33
2016-05-18T01:45:27.010Z,990.31
2016-05-18T01:46:27.013Z,990.3
2016-05-18T01:47:27.016Z,990.33
2016-05-18T01:48:27.004Z,990.38
2016-05-18T01:49:27.006Z,990.4
2016-05-18T01:50:27.009Z,990.33
2016-05-18T01:51:27.011Z,990.29
2016-05-18T01:52:27.014Z,990.28
2016-05-18T01:53:27.001Z,990.26
2016-05-18T01:54:27.003Z,990.23
2016-05-18T01:55:26.990Z,990.22
2016-05-18T01:56:26.993Z,990.24
2016-05-18T01:57:26.996Z,990.25
2016-05-18T01:58:26.998Z,990.2
2016-05-18T01:59:26.986Z,990.17
2016-05-18T02:00:26.989Z,990.2
2016-05-18T02:01:26.975Z,990.11
2016-05-18T02:02:26.979Z,990.13
2016-05-18T02:03:26.981Z,990.1
2016-05-18T02:04:27.030Z,990.08
2016-05-18T02:05:27.017Z,990.1
2016-05-18T02:06:26.973Z,990.05
2016-05-18T02:07:26.975Z,990.03
2016-05-18T02:08:26.963Z,990.01
2016-05-18T02:09:26.966Z,989.96
2016-05-18T02:10:26.968Z,989.9
2016-05-18T02:11:26.956Z,989.93
2016-05-18T02:12:26.958Z,989.93
2016-05-18T02:13:26.960Z,989.91
2016-05-18T02:14:26.964Z,989.91
2016-05-18T02:15:26.951Z,989.91
2016-05-18T02:16:26.954Z,989.89
2016-05-18T02:17:26.956Z,989.84
2016-05-18T02:18:26.959Z,989.84
2016-05-18T02:19:26.946Z,989.83
2016-05-18T02:20:26.948Z,989.83
2016-05-18T02:21:26.935Z,989.84
2016-05-18T02:22:26.938Z,989.85
2016-05-18T02:23:27.316Z,989.82
2016-05-18T02:24:26.943Z,989.81
2016-05-18T02:25:46.149Z,989.8
2016-05-18T02:26:34.231Z,989.79
2016-05-18T02:27:32.811Z,989.8
2016-05-18T02:28:32.814Z,989.77
2016-05-18T02:29:32.800Z,989.78
2016-05-18T02:30:32.804Z,989.77
2016-05-18T02:31:32.806Z,989.74
2016-05-18T02:32:32.809Z,989.68
2016-05-18T02:33:32.795Z,989.69
2016-05-18T02:34:32.798Z,989.65
2016-05-18T02:35:32.801Z,989.64
2016-05-18T02:36:32.804Z,989.65
2016-05-18T02:37:32.791Z,989.63
2016-05-18T02:38:51.997Z,989.62
2016-05-18T02:39:32.781Z,989.62
2016-05-18T02:40:32.783Z,989.57
2016-05-18T02:41:32.786Z,989.55
2016-05-18T02:42:32.774Z,989.56
2016-05-18T02:43:32.776Z,989.55
2016-05-18T02:44:32.779Z,989.55
2016-05-18T02:45:32.781Z,989.5
2016-05-18T02:46:32.769Z,989.51
2016-05-18T02:47:51.990Z,989.48
2016-05-18T02:48:32.774Z,989.5
2016-05-18T02:49:32.760Z,989.53
2016-05-18T02:50:32.764Z,989.49
2016-05-18T02:51:32.751Z,989.49
2016-05-18T02:52:32.768Z,989.53
2016-05-18T02:53:32.757Z,989.51
2016-05-18T02:54:32.759Z,989.53
2016-05-18T02:55:32.776Z,989.56
2016-05-18T02:56:32.764Z,989.58
2016-05-18T02:57:32.751Z,989.57
2016-05-18T02:58:32.738Z,989.54
2016-05-18T02:59:32.740Z,989.59
2016-05-18T03:00:32.743Z,989.62
2016-05-18T03:01:32.731Z,989.64
2016-05-18T03:02:32.733Z,989.68
2016-05-18T03:03:45.470Z,989.67
2016-05-18T03:04:32.739Z,989.73
2016-05-18T03:05:32.742Z,989.74
2016-05-18T03:06:32.728Z,989.78
2016-05-18T03:07:32.731Z,989.79
2016-05-18T03:08:32.718Z,989.78
2016-05-18T03:09:32.721Z,989.77
2016-05-18T03:10:32.724Z,989.78
2016-05-18T03:11:32.710Z,989.77
2016-05-18T03:12:32.714Z,989.73
2016-05-18T03:13:32.716Z,989.74
2016-05-18T03:14:32.702Z,989.73
2016-05-18T03:15:32.705Z,989.7
2016-05-18T03:16:32.708Z,989.72
2016-05-18T03:17:32.711Z,989.69
2016-05-18T03:18:51.901Z,989.58
2016-05-18T03:19:32.702Z,989.61
2016-05-18T03:20:32.704Z,989.61
2016-05-18T03:21:32.690Z,989.62
2016-05-18T03:22:33.131Z,989.63
2016-05-18T03:23:33.164Z,989.66
2016-05-18T03:24:32.699Z,989.69
2016-05-18T03:25:32.685Z,989.67
2016-05-18T03:26:32.688Z,989.61
2016-05-18T03:27:32.676Z,989.61
2016-05-18T03:28:32.693Z,989.6
2016-05-18T03:29:32.712Z,989.58
2016-05-18T03:30:32.699Z,989.61
2016-05-18T03:31:51.874Z,989.64
2016-05-18T03:32:32.689Z,989.59
2016-05-18T03:33:32.754Z,989.55
2016-05-18T03:34:32.663Z,989.55
2016-05-18T03:35:32.666Z,989.54
2016-05-18T03:36:32.669Z,989.56
2016-05-18T03:37:32.671Z,989.55
2016-05-18T03:38:32.659Z,989.54
2016-05-18T03:39:32.660Z,989.56
2016-05-18T03:40:32.647Z,989.55
2016-05-18T03:41:32.650Z,989.56
2016-05-18T03:42:32.653Z,989.53
2016-05-18T03:43:32.656Z,989.52
2016-05-18T03:44:32.644Z,989.5
2016-05-18T03:45:32.646Z,989.47
2016-05-18T03:46:32.649Z,989.45
2016-05-18T03:47:45.386Z,989.46
2016-05-18T03:48:32.654Z,989.48
2016-05-18T03:49:32.641Z,989.48
2016-05-18T03:50:32.644Z,989.52
2016-05-18T03:51:32.630Z,989.45
2016-05-18T03:52:32.633Z,989.43
2016-05-18T03:53:32.635Z,989.4
2016-05-18T03:54:32.639Z,989.43
2016-05-18T03:55:32.626Z,989.42
2016-05-18T03:56:32.629Z,989.37
2016-05-18T03:57:32.616Z,989.42
2016-05-18T03:58:32.634Z,989.43
2016-05-18T03:59:32.621Z,989.41
2016-05-18T04:00:32.623Z,989.43
2016-05-18T04:01:32.626Z,989.4
2016-05-18T04:02:32.614Z,989.41
2016-05-18T04:03:32.617Z,989.41
2016-05-18T04:04:32.603Z,989.44
2016-05-18T04:05:32.606Z,989.4
2016-05-18T04:06:45.343Z,989.41
2016-05-18T04:07:32.595Z,989.39
2016-05-18T04:08:32.598Z,989.4
2016-05-18T04:09:32.601Z,989.37
2016-05-18T04:10:32.603Z,989.39
2016-05-18T04:11:32.591Z,989.36
2016-05-18T04:12:32.594Z,989.34
2016-05-18T04:13:45.331Z,989.33
2016-05-18T04:14:32.599Z,989.33
2016-05-18T04:15:32.586Z,989.31
2016-05-18T04:16:51.791Z,989.35
2016-05-18T04:17:32.575Z,989.3
2016-05-18T04:18:32.578Z,989.37
2016-05-18T04:19:32.580Z,989.36
2016-05-18T04:20:32.584Z,989.36
2016-05-18T04:21:32.571Z,989.33
2016-05-18T04:22:52.324Z,989.3
2016-05-18T04:23:32.576Z,989.34
2016-05-18T04:24:32.563Z,989.34
2016-05-18T04:25:32.582Z,989.34
2016-05-18T04:26:32.568Z,989.34
2016-05-18T04:27:32.572Z,989.31
2016-05-18T04:28:32.559Z,989.31
2016-05-18T04:29:32.561Z,989.29
2016-05-18T04:30:45.298Z,989.32
2016-05-18T04:31:32.550Z,989.27
2016-05-18T04:32:32.553Z,989.3
2016-05-18T04:33:32.572Z,989.26
2016-05-18T04:34:32.543Z,989.26
2016-05-18T04:35:32.562Z,989.24
2016-05-18T04:36:32.549Z,989.27
2016-05-18T04:37:32.567Z,989.22
2016-05-18T04:38:32.554Z,989.25
2016-05-18T04:39:32.542Z,989.21
2016-05-18T04:40:32.544Z,989.21
2016-05-18T04:41:32.547Z,989.24
2016-05-18T04:42:32.533Z,989.23
2016-05-18T04:43:32.536Z,989.21
2016-05-18T04:44:32.539Z,989.18
2016-05-18T04:45:32.558Z,989.23
2016-05-18T04:46:51.732Z,989.23
2016-05-18T04:47:32.531Z,989.18
2016-05-18T04:48:32.533Z,989.21
2016-05-18T04:49:32.536Z,989.2
2016-05-18T04:50:32.524Z,989.2
2016-05-18T04:51:32.527Z,989.23
2016-05-18T04:52:32.530Z,989.19
2016-05-18T04:53:32.532Z,989.18
2016-05-18T04:54:32.519Z,989.19
2016-05-18T04:55:32.521Z,989.14
2016-05-18T04:56:51.727Z,989.13
2016-05-18T04:57:32.526Z,989.14
2016-05-18T04:58:32.515Z,989.17
2016-05-18T04:59:32.517Z,989.17
2016-05-18T05:00:32.520Z,989.17
2016-05-18T05:01:32.523Z,989.2
2016-05-18T05:02:32.525Z,989.17
2016-05-18T05:03:32.512Z,989.18
2016-05-18T05:04:32.530Z,989.19
2016-05-18T05:05:32.501Z,989.2
2016-05-18T05:06:32.504Z,989.22
2016-05-18T05:07:32.506Z,989.22
2016-05-18T05:08:45.244Z,989.21
2016-05-18T05:09:32.513Z,989.23
2016-05-18T05:10:32.499Z,989.21
2016-05-18T05:11:32.502Z,989.21
2016-05-18T05:12:32.505Z,989.21
2016-05-18T05:13:32.492Z,989.19
2016-05-18T05:14:32.494Z,989.22
2016-05-18T05:15:32.497Z,989.21
2016-05-18T05:16:32.500Z,989.23
2016-05-18T05:17:32.503Z,989.28
2016-05-18T05:18:32.506Z,989.27
2016-05-18T05:19:32.492Z,989.29
2016-05-18T05:20:32.494Z,989.31
2016-05-18T05:21:32.482Z,989.34
2016-05-18T05:22:51.688Z,989.39
2016-05-18T05:23:32.488Z,989.38
2016-05-18T05:24:32.491Z,989.33
2016-05-18T05:25:32.493Z,989.38
2016-05-18T05:26:32.480Z,989.38
2016-05-18T05:27:32.482Z,989.31
2016-05-18T05:28:32.486Z,989.34
2016-05-18T05:29:32.488Z,989.34
2016-05-18T05:30:32.475Z,989.38
2016-05-18T05:31:32.478Z,989.37
2016-05-18T05:32:32.481Z,989.37
2016-05-18T05:33:32.484Z,989.39
2016-05-18T05:34:32.470Z,989.37
2016-05-18T05:35:33.895Z,989.39
2016-05-18T05:36:32.491Z,989.36
2016-05-18T05:37:32.495Z,989.4
2016-05-18T05:38:32.481Z,989.42
2016-05-18T05:39:32.484Z,989.42
2016-05-18T05:40:32.487Z,989.4
2016-05-18T05:41:32.473Z,989.41
2016-05-18T05:42:32.476Z,989.43
2016-05-18T05:43:32.478Z,989.41
2016-05-18T05:44:32.481Z,989.43
2016-05-18T05:45:32.469Z,989.42
2016-05-18T05:46:51.674Z,989.41
2016-05-18T05:47:32.474Z,989.4
2016-05-18T05:48:32.477Z,989.43
2016-05-18T05:49:32.479Z,989.4
2016-05-18T05:50:32.466Z,989.4
2016-05-18T05:51:32.485Z,989.39
2016-05-18T05:52:32.471Z,989.44
2016-05-18T05:53:32.474Z,989.45
2016-05-18T05:54:32.477Z,989.49
2016-05-18T05:55:32.480Z,989.49
2016-05-18T05:56:32.483Z,989.5
2016-05-18T05:57:32.470Z,989.43
2016-05-18T05:58:51.676Z,989.42
2016-05-18T05:59:32.474Z,989.45
2016-05-18T06:00:32.462Z,989.41
2016-05-18T06:01:32.480Z,989.45
2016-05-18T06:02:32.468Z,989.43
2016-05-18T06:03:32.470Z,989.42
2016-05-18T06:04:32.473Z,989.4
2016-05-18T06:05:32.476Z,989.41
2016-05-18T06:06:32.462Z,989.36
2016-05-18T06:07:32.481Z,989.41
2016-05-18T06:08:32.468Z,989.34
2016-05-18T06:09:32.470Z,989.38
2016-05-18T06:10:32.473Z,989.39
2016-05-18T06:11:32.476Z,989.38
2016-05-18T06:12:32.478Z,989.36
2016-05-18T06:13:32.466Z,989.36
2016-05-18T06:14:51.671Z,989.4
2016-05-18T06:15:32.471Z,989.39
2016-05-18T06:16:32.475Z,989.39
2016-05-18T06:17:32.477Z,989.38
2016-05-18T06:18:32.463Z,989.39
2016-05-18T06:19:32.466Z,989.33
2016-05-18T06:20:32.469Z,989.34
2016-05-18T06:21:32.472Z,989.37
2016-05-18T06:22:32.474Z,989.35
2016-05-18T06:23:51.680Z,989.36
2016-05-18T06:24:32.480Z,989.34
2016-05-18T06:25:32.482Z,989.29
2016-05-18T06:26:32.469Z,989.3
2016-05-18T06:27:32.472Z,989.33
2016-05-18T06:28:32.490Z,989.32
2016-05-18T06:29:32.477Z,989.29
2016-05-18T06:30:32.480Z,989.26
2016-05-18T06:31:32.482Z,989.35
2016-05-18T06:32:32.485Z,989.27
2016-05-18T06:33:32.488Z,989.29
2016-05-18T06:34:32.491Z,989.3
2016-05-18T06:35:51.697Z,989.38
2016-05-18T06:36:32.496Z,989.28
2016-05-18T06:37:32.499Z,989.28
2016-05-18T06:38:32.501Z,989.33
2016-05-18T06:39:32.504Z,989.29
2016-05-18T06:40:32.507Z,989.15
2016-05-18T06:41:32.510Z,989.14
2016-05-18T06:42:32.512Z,989.1
2016-05-18T06:43:32.514Z,989.12
2016-05-18T06:44:32.533Z,989.1
2016-05-18T06:45:51.723Z,989.1
2016-05-18T06:46:32.523Z,989.07
2016-05-18T06:47:32.541Z,989.2
2016-05-18T06:48:32.545Z,989.12
2016-05-18T06:49:32.531Z,989.13
2016-05-18T06:50:32.550Z,989.12
2016-05-18T06:51:51.756Z,989.11
2016-05-18T06:52:32.555Z,989.09
2016-05-18T06:53:32.558Z,989.12
2016-05-18T06:54:32.577Z,989.11
2016-05-18T06:55:32.579Z,989.06
2016-05-18T06:56:32.566Z,989.04
2016-05-18T06:57:32.569Z,989.06
2016-05-18T06:58:32.587Z,989.03
2016-05-18T06:59:32.590Z,989.02
2016-05-18T07:00:32.593Z,989.02
2016-05-18T07:01:32.595Z,988.98
2016-05-18T07:02:32.598Z,988.98
2016-05-18T07:03:32.601Z,988.98
2016-05-18T07:04:32.603Z,988.96
2016-05-18T07:05:51.824Z,989.04
2016-05-18T07:06:32.609Z,989.02
2016-05-18T07:07:32.626Z,989.01
2016-05-18T07:08:32.629Z,989.02
2016-05-18T07:09:32.632Z,988.99
2016-05-18T07:10:32.635Z,989.03
2016-05-18T07:11:32.637Z,989.03
2016-05-18T07:12:32.640Z,989.01
2016-05-18T07:13:32.642Z,989.01
2016-05-18T07:14:32.662Z,989
2016-05-18T07:15:32.664Z,989.02
2016-05-18T07:16:32.667Z,989.02
2016-05-18T07:17:45.403Z,989.01
2016-05-18T07:18:32.656Z,988.97
2016-05-18T07:19:32.675Z,988.95
2016-05-18T07:20:32.677Z,988.96
2016-05-18T07:21:32.680Z,988.97
2016-05-18T07:22:32.683Z,988.94
2016-05-18T07:23:32.685Z,988.96
2016-05-18T07:24:32.703Z,988.91
2016-05-18T07:25:32.800Z,988.93
2016-05-18T07:26:32.709Z,988.93
2016-05-18T07:27:32.727Z,988.89
2016-05-18T07:28:32.793Z,988.89
2016-05-18T07:29:32.717Z,988.88
2016-05-18T07:30:32.736Z,988.89
2016-05-18T07:31:51.942Z,988.88
2016-05-18T07:32:32.741Z,988.86
2016-05-18T07:33:32.759Z,988.81
2016-05-18T07:34:32.746Z,988.86
2016-05-18T07:35:32.749Z,988.89
2016-05-18T07:36:32.768Z,988.88
2016-05-18T07:37:32.770Z,988.85
2016-05-18T07:38:32.773Z,988.84
2016-05-18T07:39:32.775Z,988.81
2016-05-18T07:40:32.794Z,988.78
2016-05-18T07:41:45.531Z,988.81
2016-05-18T07:42:32.799Z,988.86
2016-05-18T07:43:32.801Z,988.93
2016-05-18T07:44:32.804Z,988.83
2016-05-18T07:45:32.807Z,988.79
2016-05-18T07:46:32.810Z,988.78
2016-05-18T07:47:32.812Z,988.79
2016-05-18T07:48:32.831Z,988.79
2016-05-18T07:49:32.833Z,988.77
2016-05-18T07:50:52.055Z,988.72
2016-05-18T07:51:32.839Z,988.73
2016-05-18T07:52:32.857Z,988.73
2016-05-18T07:53:32.860Z,988.74
2016-05-18T07:54:32.863Z,988.84
2016-05-18T07:55:32.866Z,988.73
2016-05-18T07:56:52.071Z,988.72
2016-05-18T07:57:32.886Z,988.75
2016-05-18T07:58:32.888Z,988.76
2016-05-18T07:59:32.892Z,988.69
2016-05-18T08:00:32.895Z,988.75
2016-05-18T08:01:32.897Z,988.73
2016-05-18T08:02:32.916Z,988.7
2016-05-18T08:03:32.918Z,988.74
2016-05-18T08:04:39.186Z,988.69
2016-05-18T08:05:32.939Z,988.69
2016-05-18T08:06:32.926Z,988.67
2016-05-18T08:07:32.944Z,988.65
2016-05-18T08:08:33.182Z,988.67
2016-05-18T08:09:32.966Z,988.64
2016-05-18T08:10:32.968Z,988.62
2016-05-18T08:11:32.971Z,988.63
2016-05-18T08:12:32.973Z,988.58
2016-05-18T08:13:32.976Z,988.64
2016-05-18T08:14:32.979Z,988.61
2016-05-18T08:15:32.997Z,988.61
2016-05-18T08:16:33.000Z,988.56
2016-05-18T08:17:39.267Z,988.53
2016-05-18T08:18:33.005Z,988.49
2016-05-18T08:19:33.008Z,988.49
2016-05-18T08:20:33.026Z,988.54
2016-05-18T08:21:33.029Z,988.5
2016-05-18T08:22:33.032Z,988.47
2016-05-18T08:23:33.034Z,988.48
2016-05-18T08:24:52.256Z,988.48
2016-05-18T08:25:52.275Z,988.44
2016-05-18T08:26:33.058Z,988.45
2016-05-18T08:27:33.071Z,988.45
2016-05-18T08:28:33.133Z,988.42
2016-05-18T08:29:33.177Z,988.39
2016-05-18T08:30:33.831Z,988.41
2016-05-18T08:31:33.267Z,988.38
2016-05-18T08:32:33.320Z,988.39
2016-05-18T08:33:33.338Z,988.4
2016-05-18T08:34:52.576Z,988.42
2016-05-18T08:35:33.374Z,988.39
2016-05-18T08:36:33.409Z,988.38
2016-05-18T08:37:33.424Z,988.42
2016-05-18T08:38:33.729Z,988.36
2016-05-18T08:39:33.455Z,988.36
2016-05-18T08:40:33.463Z,988.32
2016-05-18T08:41:33.487Z,988.33
2016-05-18T08:42:33.479Z,988.35
2016-05-18T08:43:33.500Z,988.31
2016-05-18T08:44:33.521Z,988.34
2016-05-18T08:45:33.510Z,988.32
2016-05-18T08:46:46.265Z,988.31
2016-05-18T08:47:33.535Z,988.35
2016-05-18T08:48:33.539Z,988.27
2016-05-18T08:49:33.557Z,988.26
2016-05-18T08:50:34.092Z,988.23
2016-05-18T08:51:33.564Z,988.2
2016-05-18T08:52:33.583Z,988.13
2016-05-18T08:53:33.586Z,988.15
2016-05-18T08:54:33.589Z,988.11
2016-05-18T08:55:33.608Z,988.16
2016-05-18T08:56:52.797Z,988.13
2016-05-18T08:57:33.597Z,988.1
2016-05-18T08:58:33.615Z,988.09
2016-05-18T08:59:33.618Z,988.08
2016-05-18T09:00:33.621Z,988.13
2016-05-18T09:01:52.841Z,988.13
2016-05-18T09:02:33.641Z,988.12
2016-05-18T09:03:33.644Z,988.09
2016-05-18T09:04:33.663Z,988.03
2016-05-18T09:05:52.868Z,988.02
2016-05-18T09:06:33.668Z,988.06
2016-05-18T09:07:33.670Z,988.1
2016-05-18T09:08:33.673Z,988.13
2016-05-18T09:09:33.676Z,988.08
2016-05-18T09:10:46.429Z,988.08
2016-05-18T09:11:33.915Z,988.02
2016-05-18T09:12:33.699Z,988.01
2016-05-18T09:13:33.718Z,987.99
2016-05-18T09:14:33.704Z,987.95
2016-05-18T09:15:46.457Z,987.91
2016-05-18T09:16:33.726Z,987.9
2016-05-18T09:17:33.745Z,987.87
2016-05-18T09:18:33.747Z,987.91
2016-05-18T09:19:33.781Z,988
2016-05-18T09:20:33.752Z,988.03
2016-05-18T09:21:33.755Z,988.02
2016-05-18T09:22:52.976Z,988.05
2016-05-18T09:23:34.261Z,988.09
2016-05-18T09:24:33.778Z,988.03
2016-05-18T09:25:34.438Z,988.04
2016-05-18T09:26:33.784Z,987.99
2016-05-18T09:27:53.005Z,987.96
2016-05-18T09:28:33.789Z,987.94
2016-05-18T09:29:33.807Z,987.99
2016-05-18T09:30:33.810Z,987.97
2016-05-18T09:31:46.547Z,987.93
2016-05-18T09:32:33.816Z,987.93
2016-05-18T09:33:33.834Z,987.9
2016-05-18T09:34:33.837Z,987.85
2016-05-18T09:35:33.840Z,987.82
2016-05-18T09:36:46.576Z,987.84
2016-05-18T09:37:33.860Z,987.84
2016-05-18T09:38:34.019Z,987.85
2016-05-18T09:39:33.866Z,987.88
2016-05-18T09:40:33.884Z,987.82
2016-05-18T09:41:33.871Z,987.75
2016-05-18T09:42:46.623Z,987.82
2016-05-18T09:43:46.626Z,987.75
2016-05-18T09:44:33.926Z,987.75
2016-05-18T09:45:33.913Z,987.71
2016-05-18T09:46:33.915Z,987.74
2016-05-18T09:47:33.918Z,987.81
2016-05-18T09:48:33.937Z,987.85
2016-05-18T09:49:46.658Z,987.79
2016-05-18T09:50:40.208Z,987.75
2016-05-18T09:51:53.148Z,987.74
2016-05-18T09:52:33.948Z,987.77
2016-05-18T09:54:49.219Z,987.69
2016-05-18T09:55:49.206Z,987.64
2016-05-18T09:56:49.225Z,987.69
2016-05-18T09:57:49.227Z,987.69
2016-05-18T09:59:08.448Z,987.66
2016-05-18T09:59:56.841Z,987.63
2016-05-18T10:00:55.438Z,987.64
2016-05-18T10:01:55.441Z,987.56
2016-05-18T10:03:01.709Z,987.58
2016-05-18T10:03:55.446Z,987.55
2016-05-18T10:04:55.464Z,987.52
2016-05-18T10:05:55.483Z,987.54
2016-05-18T10:07:14.673Z,987.55
2016-05-18T10:07:55.472Z,987.53
2016-05-18T10:08:55.491Z,987.55
2016-05-18T10:09:55.493Z,987.52
2016-05-18T10:10:55.496Z,987.52
2016-05-18T10:11:55.499Z,987.54
2016-05-18T10:12:55.501Z,987.51
2016-05-18T10:13:55.504Z,987.55
2016-05-18T10:14:55.523Z,987.48
2016-05-18T10:15:55.525Z,987.51
2016-05-18T10:16:55.528Z,987.49
2016-05-18T10:17:55.531Z,987.47
2016-05-18T10:18:55.534Z,987.42
2016-05-18T10:19:55.551Z,987.44
2016-05-18T10:20:55.554Z,987.41
2016-05-18T10:21:55.557Z,987.38
2016-05-18T10:22:55.559Z,987.37
2016-05-18T10:24:08.375Z,987.34
2016-05-18T10:24:55.565Z,987.35
2016-05-18T10:25:55.583Z,987.39
2016-05-18T10:26:55.586Z,987.37
2016-05-18T10:27:55.589Z,987.33
2016-05-18T10:28:55.591Z,987.34
2016-05-18T10:29:55.594Z,987.3
2016-05-18T10:30:55.613Z,987.31
2016-05-18T10:31:55.616Z,987.29
2016-05-18T10:32:55.649Z,987.28
2016-05-18T10:33:55.621Z,987.2
2016-05-18T10:35:08.358Z,987.23
2016-05-18T10:35:55.642Z,987.2
2016-05-18T10:36:55.644Z,987.2
2016-05-18T10:37:56.084Z,987.2
2016-05-18T10:38:55.649Z,987.08
2016-05-18T10:39:55.668Z,987.06
2016-05-18T10:41:08.405Z,987.1
2016-05-18T10:41:55.674Z,987.03
2016-05-18T10:42:55.676Z,987
2016-05-18T10:43:55.679Z,987.05
2016-05-18T10:45:14.901Z,987.07
2016-05-18T10:45:55.699Z,987.04
2016-05-18T10:46:55.718Z,987.05
2016-05-18T10:47:55.737Z,987.02
2016-05-18T10:48:55.724Z,987.01
2016-05-18T10:50:08.460Z,987.05
2016-05-18T10:50:55.744Z,986.98
2016-05-18T10:51:55.732Z,986.92
2016-05-18T10:52:55.750Z,986.85
2016-05-18T10:53:55.753Z,986.82
2016-05-18T10:55:14.959Z,986.74
2016-05-18T10:55:55.758Z,986.74
2016-05-18T10:56:55.776Z,986.75
2016-05-18T10:57:55.779Z,986.8
2016-05-18T10:59:08.531Z,986.77
2016-05-18T10:59:55.784Z,986.75
2016-05-18T11:00:55.803Z,986.74
2016-05-18T11:01:55.806Z,986.68
2016-05-18T11:02:55.808Z,986.63
2016-05-18T11:03:55.827Z,986.66
2016-05-18T11:04:55.813Z,986.6
2016-05-18T11:06:15.035Z,986.58
2016-05-18T11:06:55.835Z,986.55
2016-05-18T11:07:55.838Z,986.57
2016-05-18T11:08:55.855Z,986.58
2016-05-18T11:09:55.857Z,986.57
2016-05-18T11:10:55.877Z,986.52
2016-05-18T11:11:55.879Z,986.54
2016-05-18T11:12:55.866Z,986.55
2016-05-18T11:13:55.885Z,986.52
2016-05-18T11:14:55.887Z,986.49
2016-05-18T11:15:55.889Z,986.55
2016-05-18T11:17:08.627Z,986.57
2016-05-18T11:17:55.895Z,986.57
2016-05-18T11:18:55.913Z,986.51
2016-05-18T11:19:55.931Z,986.5
2016-05-18T11:20:55.918Z,986.45
2016-05-18T11:22:08.656Z,986.45
2016-05-18T11:22:55.940Z,986.46
2016-05-18T11:23:55.942Z,986.45
2016-05-18T11:25:15.164Z,986.47
2016-05-18T11:25:55.948Z,986.4
2016-05-18T11:26:55.950Z,986.43
2016-05-18T11:27:55.954Z,986.42
2016-05-18T11:28:55.972Z,986.4
2016-05-18T11:29:55.974Z,986.39
2016-05-18T11:30:55.977Z,986.29
2016-05-18T11:31:55.995Z,986.26
2016-05-18T11:32:56.091Z,986.25
2016-05-18T11:33:56.141Z,986.25
2016-05-18T11:34:56.019Z,986.18
2016-05-18T11:35:56.022Z,986.22
2016-05-18T11:36:56.008Z,986.27
2016-05-18T11:37:56.402Z,986.24
2016-05-18T11:38:56.030Z,986.15
2016-05-18T11:39:56.032Z,986.14
2016-05-18T11:40:56.051Z,986.15
2016-05-18T11:41:56.038Z,986.13
2016-05-18T11:42:56.057Z,986.12
2016-05-18T11:43:56.059Z,986.07
2016-05-18T11:45:02.358Z,986.15
2016-05-18T11:45:56.079Z,986.13
2016-05-18T11:46:56.082Z,986.11
2016-05-18T11:47:56.085Z,986.12
2016-05-18T11:49:08.822Z,986.11
2016-05-18T11:49:56.107Z,986.04
2016-05-18T11:50:56.109Z,985.97
2016-05-18T11:51:56.111Z,986.04
2016-05-18T11:52:56.115Z,986.05
2016-05-18T11:53:56.117Z,986.04
2016-05-18T11:55:02.401Z,985.97
2016-05-18T11:55:56.137Z,985.98
2016-05-18T11:56:56.140Z,986.01
2016-05-18T11:57:56.143Z,985.98
2016-05-18T11:58:56.161Z,985.98
2016-05-18T11:59:56.258Z,985.93
2016-05-18T12:00:56.167Z,985.93
2016-05-18T12:02:08.903Z,985.9
2016-05-18T12:02:56.188Z,985.92
2016-05-18T12:03:56.191Z,985.93
2016-05-18T12:04:56.194Z,985.91
2016-05-18T12:05:56.211Z,985.91
2016-05-18T12:06:56.214Z,985.92
2016-05-18T12:07:56.249Z,985.93
2016-05-18T12:08:59.329Z,985.93
2016-05-18T12:09:56.238Z,985.89
2016-05-18T12:10:56.225Z,985.87
2016-05-18T12:12:08.994Z,985.89
2016-05-18T12:12:56.246Z,985.88
2016-05-18T12:13:56.265Z,985.8
2016-05-18T12:14:56.267Z,985.77
2016-05-18T12:16:09.004Z,985.76
2016-05-18T12:16:56.273Z,985.69
2016-05-18T12:17:56.275Z,985.66
2016-05-18T12:18:56.294Z,985.56
2016-05-18T12:19:59.734Z,985.54
2016-05-18T12:20:56.298Z,985.5
2016-05-18T12:21:56.302Z,985.46
2016-05-18T12:22:56.773Z,985.48
2016-05-18T12:23:59.353Z,985.45
2016-05-18T12:24:56.326Z,985.41
2016-05-18T12:25:56.343Z,985.4
2016-05-18T12:26:56.346Z,985.48
2016-05-18T12:27:56.348Z,985.45
2016-05-18T12:28:56.351Z,985.47
2016-05-18T12:29:56.354Z,985.46
2016-05-18T12:31:09.106Z,985.38
2016-05-18T12:31:56.391Z,985.4
2016-05-18T12:32:56.394Z,985.34